Terminal Aerodrome Forecast
Issued by NWS Cleveland, OH

Home | Current Version | Previous Version | Text Only | Print | Product List | Glossary On
Versions: 1 2 3 4 5 6 7 8 9 10 11 12 13 14 15 16 17 18 19 20 21 22 23 24 25 26 27 28 29 30 31
000
FTUS41 KCLE 191400 AAB
TAFCLE
TAF AMD
KCLE 191458Z 1915/2018 10012G20KT P6SM SCT060 BKN150
     FM192130 12015G25KT 5SM -SHRA SCT025 OVC060
     FM192300 14015G28KT 3SM -SHRA SCT010 OVC025
     FM200400 16015G25KT 6SM -SHRA OVC010
     FM200600 19015G25KT P6SM VCSH OVC030
     FM201200 21015G22KT P6SM OVC040=

USA.gov is the U.S. government's official web portal to all federal, state and local government web resources and services.